Flight Track Log - Related Links

Times and Time Zones

All times are in EDT time to prevent confusion due to time zone crossing. See the N211RN flight status page for this flight to view local times or setup timezone preferences in your user account.

Time Position Orientation Groundspeed Altitude Reporting Facility
EDT Latitude Longitude Course Direction KTS MPH feet Rate Location/Type
05:58PM 29.1844 -81.0492 North 171 197 1,000  Level Jacksonville Center
05:59PM 29.2086 -80.9869 66° East 213 245 4,100 3,148 Climbing Jacksonville Center
06:00PM 29.2581 -80.9503 33° Northeast 239 275 7,400 3,050 Climbing Jacksonville Center
06:01PM 29.3150 -80.9992 323° Northwest 211 243 10,200 2,500 Climbing Jacksonville Center
06:02PM 29.3603 -81.0817 302° West 287 330 12,400 2,281 Climbing Jacksonville Center
06:03PM 29.4072 -81.1714 301° West 331 381 14,800 2,400 Climbing Jacksonville Center
06:04PM 29.6438 -81.4333 North  Level FlightAware Approximate
06:04PM 29.4586 -81.2611 303° West 337 388 17,200  Level Jacksonville Center
06:05PM 29.4994 -81.3536 297° West 348 400 19,400 2,331 Climbing Jacksonville Center
06:06PM 29.5650 -81.4336 313° West 342 394 21,900 2,250 Climbing Jacksonville Center
06:07PM 29.6656 -81.4489 352° North 335 386 23,900 1,950 Climbing Jacksonville Center
06:08PM 29.7719 -81.4569 356° North 348 400 25,800 1,884 Climbing Jacksonville Center
06:09PM 29.8806 -81.4672 355° North 366 421 27,700 1,750 Climbing Jacksonville Center
06:10PM 29.9936 -81.4800 354° North 390 449 29,300 1,563 Climbing Jacksonville Center
06:11PM 30.1022 -81.4881 356° North 395 455 30,800 1,462 Climbing Jacksonville Center
06:12PM 30.2172 -81.4983 356° North 406 467 32,200 1,388 Climbing Jacksonville Center
06:13PM 30.3342 -81.5086 356° North 412 474 33,600 1,587 Climbing Jacksonville Center
06:14PM 30.4614 -81.4947 North 407 468 35,400 1,600 Climbing Jacksonville Center
06:15PM 30.5739 -81.4811 North 407 468 36,800 1,311 Climbing Jacksonville Center
06:16PM 30.6908 -81.4672 North 407 468 38,000 1,261 Climbing Jacksonville Center
06:17PM 30.8033 -81.4536 North 407 468 39,300 1,150 Climbing Jacksonville Center
06:18PM 30.9181 -81.4397 North 407 468 40,300 843 Climbing Jacksonville Center
06:19PM 31.0306 -81.4233 North 407 468 41,000 350 Climbing Jacksonville Center
06:20PM 31.1494 -81.4094 North 407 468 41,000  Level Jacksonville Center
06:21PM 31.2683 -81.3928 North 427 491 41,000  Level Jacksonville Center
06:22PM 31.3892 -81.3789 North 432 497 41,000  Level Jacksonville Center
06:23PM 31.5122 -81.3622 North 437 503 41,000  Level Jacksonville Center
06:24PM 31.6206 -81.3483 North 442 509 41,000  Level Jacksonville Center
06:25PM 31.7539 -81.3314 North 442 509 41,000  Level Jacksonville Center
06:26PM 31.8708 -81.3172 North 437 503 41,000  Level Jacksonville Center
06:27PM 31.9853 -81.3006 North 442 509 41,000  Level Jacksonville Center
06:28PM 32.1061 -81.2861 North 442 509 41,000  Level Jacksonville Center
06:29PM 32.2272 -81.2717 North 442 509 41,000  Level Jacksonville Center
06:30PM 32.3500 -81.2547 North 442 509 41,000  Level Jacksonville Center
06:31PM 32.4856 -81.2400 North 448 516 41,000  Level Jacksonville Center
06:32PM 32.5961 -81.2231 North 441 507 41,000  Level Jacksonville Center
06:33PM 32.7147 -81.2061 North 441 507 41,000  Level Jacksonville Center
06:34PM 32.8336 -81.1917 North 441 507 41,000  Level Jacksonville Center
06:35PM 32.9544 -81.1769 North 441 507 41,000  Level Jacksonville Center
06:36PM 33.0753 -81.1597 North 441 507 41,000  Level Jacksonville Center
06:37PM 33.1942 -81.1450 North 436 502 41,000  Level Jacksonville Center
06:38PM 33.3086 -81.1278 North 426 490 41,000  Level Jacksonville Center
06:39PM 33.4294 -81.1131 North 426 490 41,000  Level Jacksonville Center
06:40PM 33.5461 -81.0958 North 426 490 41,000  Level Jacksonville Center
06:41PM 33.6647 -81.0808 North 426 490 41,000  Level Jacksonville Center
06:43PM 33.8997 -81.0456 North 424 488 41,000  Level Atlanta Center
06:44PM 34.0203 -81.0289 North 424 488 41,000  Level Atlanta Center
06:45PM 34.1328 -81.0147 North 419 482 41,000  Level Atlanta Center
06:46PM 34.2492 -81.0006 North 419 482 41,000  Level Atlanta Center
06:47PM 34.3636 -80.9839 North 412 474 41,000  Level Atlanta Center
06:48PM 34.4656 -80.9700 North 407 468 41,000  Level Atlanta Center
06:49PM 34.5758 -80.9586 North 407 468 41,000  Level Atlanta Center
06:50PM 34.6900 -80.9392 North 407 468 41,000  Level Atlanta Center
06:51PM 34.8044 -80.9247 North 407 468 41,000  Level Atlanta Center
06:52PM 34.9189 -80.9053 North 407 468 41,000  Level Atlanta Center
06:53PM 35.0292 -80.8936 North 407 468 41,000  Level Atlanta Center
06:54PM 35.1414 -80.8742 North 407 468 41,000  Level Atlanta Center
06:55PM 35.2578 -80.8594 North 407 468 41,000  Level Atlanta Center
06:56PM 35.3678 -80.8425 North 407 468 41,000  Level Atlanta Center
06:57PM 35.4800 -80.8253 North 407 468 41,000  Level Atlanta Center
06:58PM 35.5944 -80.8106 North 407 468 41,000  Level Atlanta Center
06:59PM 35.6175 -80.7955 North  Level FlightAware Approximate
06:59PM 35.7108 -80.7933 North 407 468 41,000  Level Atlanta Center
07:00PM 35.8231 -80.7786 North 407 468 41,000  Level Atlanta Center
07:01PM 35.9353 -80.7611 North 407 468 41,000  Level Atlanta Center
07:02PM 36.0619 -80.7458 North 407 468 41,000  Level Atlanta Center
07:03PM 36.1742 -80.7283 North 407 468 41,000  Level Atlanta Center
07:04PM 36.2886 -80.7133 North 407 468 41,000 -350 Level Atlanta Center
07:05PM 36.4006 -80.6958 North 407 468 40,300 -800 Descending Atlanta Center
07:06PM 36.5150 -80.6781 North 407 468 39,400 -893 Descending Atlanta Center
07:07PM 36.6269 -80.6631 North 407 468 38,500 -900 Descending Atlanta Center
07:08PM 36.7372 -80.6456 North 407 468 37,600 -900 Descending Atlanta Center
07:09PM 36.8453 -80.6331 North 396 456 36,700 -900 Descending Atlanta Center
07:10PM 36.9531 -80.6181 North 396 456 35,800 -642 Descending Atlanta Center
07:12PM 37.1239 -80.5933 North 387 445 35,000 -300 Descending Washington Center
07:13PM 37.2353 -80.5772 North 392 451 35,000  Level Washington Center
07:14PM 37.3464 -80.5636 North 397 457 35,000  Level Washington Center
07:15PM 37.4703 -80.5456 North 402 463 35,000  Level Washington Center
07:16PM 37.5814 -80.5292 North 402 463 35,000  Level Washington Center
07:17PM 37.6928 -80.5128 North 407 468 35,000  Level Washington Center
07:18PM 37.8061 -80.4964 North 407 468 35,000 -496 Level Washington Center
07:19PM 37.9153 -80.4772 North 407 468 34,000 -1,109 Descending Washington Center
07:20PM 38.0158 -80.4653 North 407 468 32,800 -1,210 Descending Washington Center
07:21PM 38.1292 -80.4464 North 407 468 31,600 1,091 Descending Washington Center
07:22PM 38.2406 -80.4297 North 407 468 35,000 -1,140 Climbing Washington Center
07:23PM 38.3539 -80.4108 North 407 468 29,300 -3,570 Descending Washington Center
07:24PM 38.4797 -80.3925 North 413 475 27,800 -1,351 Descending Washington Center
07:25PM 38.5758 -80.3731 North 408 470 26,800 -1,168 Descending Cleveland Center
07:26PM 38.6861 -80.3561 North 404 465 25,600 -1,210 Descending Cleveland Center
07:27PM 38.7969 -80.3389 North 402 463 24,300 -1,220 Descending Cleveland Center
07:28PM 38.9083 -80.3217 North 402 463 23,100 -1,171 Descending Cleveland Center
07:29PM 39.0169 -80.3042 North 398 458 21,900 -1,016 Descending Cleveland Center
07:30PM 39.1222 -80.2897 North 385 443 21,000 -435 Descending Cleveland Center
07:31PM 39.2411 -80.2703 North 360 414 21,000 -48 Level Cleveland Center
07:32PM 39.3425 -80.2700 360° North 361 415 20,900 -780 Descending Cleveland Center
07:33PM 39.4425 -80.2739 358° North 360 414 19,400 -1,561 Descending Cleveland Center
07:34PM 39.5422 -80.2767 359° North 360 414 17,700 -2,032 Descending Cleveland Center
07:35PM 39.6389 -80.2783 359° North 349 402 15,200 -2,634 Descending Cleveland Center
07:36PM 39.7306 -80.2814 359° North 332 382 12,300 -3,114 Descending Cleveland Center
07:38PM 39.9053 -80.2844 359° North 277 319 5,600 -2,659 Descending Cleveland Center
07:39PM 39.9589 -80.2856 359° North 262 302 4,100 -1,475 Descending Cleveland Center
07:41PM 40.1088 -80.2833 North  Level FlightAware Approximate
07:48PM 40.1333 -80.2833 North  Level FlightAware Approximate
07:49PM 40.1365 -80.2902 North  Level Estimated
07:50PM 40.1333 -80.2833 North  Level FlightAware Approximate
07:51PM 40.1365 -80.2902 North  Level Estimated
07:52PM 40.1333 -80.2833 North  Level FlightAware Approximate

Login

Don't have an account? Register now (free) for customized features, flight alerts, and more!